Briefing drone pour Bas-en-basset

Rechercher une autre localisation

Conditions de vol :


Nous sommes le : Mardi 27 juillet 2021
Il est 02:10 UTC (04:10 LT)

Lever de soleil : 03:56 UTC (05:56 LT)
Coucher de soleil : 19:43 UTC (21:43 LT)

Météo

L'essentiel des conditions de vol

VIGILANCE MÉTÉO FRANCE - Haute-Loire (43)
Pas de vigilances particulieres
CARTE TEMSI
CARTES DES FRONTS
METAR de LFMH
LFMH 270200Z AUTO 19003KT CAVOK 12/12 Q1017

Date d'émission: 27/07/2021
Heure d'émission: 02:00 UTC
Vent: 190° pour 3 KT (6 km/h)
Visibilité horizontale: > 10 km
Plafond : Plafond et visibilité OK (CAVOK)
Température: 12 °C
Point de rosée: 12 °C
Humidité: 100%
Pression (QNH): 1017 hPa
TAF de LFMH
LFMH 161901Z 1619/1712 CNL

Conditions prévues :

Heure d'émission : Bulletin éffectué le 16 à 19:00 UTC
Prévision : Valide du 16 a 19:00 UTC au 17 a 12:00 UTC
Nuages : à 0ft (0 m)
WEBCAM POUR BAS-EN-BASSET

Réglementation

Voler en sécurité

CARTES AERONAUTIQUE 1/500.000
CARTES VAC (LFMH)
SUP AIP




Chargement des AIP...
NOTAM (BAS-EN-BASSET + Terrain à proximité / FIR )




Chargement des NOTAMS...
CONTACT PREFECTURE 43


Avertissement : Les données mises à disposition sont indicatives. Oxygène Drone ne pourra être tenu responsable de dégâts causés aux biens et aux personnes.